YPGV/GOV METAR and TAF weather

Enter ICAO airport designator
Station Type Date Time Source
YPGV METAR 2019/04/25 07:30 UTC NOAA

YPGV 250730Z AUTO 14013KT 9999 // SCT026 29/23 Q1008 RF00.0/000.2


Station Type Date Time Source
YPGV Decoded METAR 2019/04/25 07:30 UTC NOAA

Station name not available
Apr 25, 2019 - 03:30 AM EDT / 2019.04.25 0730 UTC
Wind: from the SE (140 degrees) at 15 MPH (13 KT):0
Visibility: greater than 7 mile(s):0
Sky conditions: partly cloudy
Temperature: 84 F (29 C)
Dew Point: 73 F (23 C)
Relative Humidity: 70%
Pressure (altimeter): 29.77 in. Hg (1008 hPa)
ob: YPGV 250730Z AUTO 14013KT 9999 // SCT026 29/23 Q1008 RF00.0/000.2
cycle: 7

Station Type Date Time Source
YPGV TAF 2019/04/25 08:00 UTC NOAA

TAF YPGV 250705Z 2508/2520 14014KT 9999 SCT030
FM250900 14006KT 9999 SCT025

Example: see airport list